sensor_id;sensor_type;location;lat;lon;timestamp;pressure;altitude;pressure_sealevel;temperature;humidity
14089;BME280;7120;52.890;6.040;2023-07-24T00:00:23;100330.31;;;17.35;100.00
14089;BME280;7120;52.890;6.040;2023-07-24T00:02:49;100333.75;;;17.32;100.00
14089;BME280;7120;52.890;6.040;2023-07-24T00:05:14;100328.88;;;17.25;100.00
14089;BME280;7120;52.890;6.040;2023-07-24T00:07:39;100332.53;;;17.29;100.00
14089;BME280;7120;52.890;6.040;2023-07-24T00:10:05;100322.19;;;17.26;100.00
14089;BME280;7120;52.890;6.040;2023-07-24T00:12:31;100321.22;;;17.18;100.00
14089;BME280;7120;52.890;6.040;2023-07-24T00:14:56;100326.69;;;17.15;100.00
14089;BME280;7120;52.890;6.040;2023-07-24T00:17:22;100332.38;;;17.22;100.00
14089;BME280;7120;52.890;6.040;2023-07-24T00:19:48;100324.88;;;17.22;100.00
14089;BME280;7120;52.890;6.040;2023-07-24T00:22:14;100321.59;;;17.17;100.00
14089;BME280;7120;52.890;6.040;2023-07-24T00:24:39;100307.16;;;17.08;100.00
14089;BME280;7120;52.890;6.040;2023-07-24T00:27:05;100308.41;;;17.10;100.00
14089;BME280;7120;52.890;6.040;2023-07-24T00:29:30;100316.69;;;17.10;100.00
14089;BME280;7120;52.890;6.040;2023-07-24T00:31:56;100316.88;;;17.01;100.00
14089;BME280;7120;52.890;6.040;2023-07-24T00:34:21;100318.69;;;16.94;100.00
14089;BME280;7120;52.890;6.040;2023-07-24T00:36:46;100315.00;;;16.90;100.00
14089;BME280;7120;52.890;6.040;2023-07-24T00:39:14;100325.69;;;16.91;100.00
14089;BME280;7120;52.890;6.040;2023-07-24T00:41:39;100330.09;;;16.92;100.00
14089;BME280;7120;52.890;6.040;2023-07-24T00:44:05;100336.06;;;16.94;100.00
14089;BME280;7120;52.890;6.040;2023-07-24T00:46:30;100321.84;;;17.12;100.00
14089;BME280;7120;52.890;6.040;2023-07-24T00:48:58;100331.59;;;17.06;100.00
14089;BME280;7120;52.890;6.040;2023-07-24T00:51:26;100331.84;;;17.16;100.00
14089;BME280;7120;52.890;6.040;2023-07-24T00:53:54;100333.16;;;17.22;100.00
14089;BME280;7120;52.890;6.040;2023-07-24T00:56:20;100336.47;;;17.28;100.00
14089;BME280;7120;52.890;6.040;2023-07-24T00:58:47;100335.91;;;17.38;100.00
14089;BME280;7120;52.890;6.040;2023-07-24T01:01:13;100325.63;;;17.39;100.00
14089;BME280;7120;52.890;6.040;2023-07-24T01:03:39;100322.47;;;17.56;100.00
14089;BME280;7120;52.890;6.040;2023-07-24T01:06:04;100326.41;;;17.55;100.00
14089;BME280;7120;52.890;6.040;2023-07-24T01:08:30;100323.34;;;17.60;100.00
14089;BME280;7120;52.890;6.040;2023-07-24T01:10:57;100323.44;;;17.64;100.00
14089;BME280;7120;52.890;6.040;2023-07-24T01:13:28;100316.91;;;17.72;100.00
14089;BME280;7120;52.890;6.040;2023-07-24T01:16:03;100306.00;;;17.79;100.00
14089;BME280;7120;52.890;6.040;2023-07-24T01:18:30;100304.47;;;17.81;100.00
14089;BME280;7120;52.890;6.040;2023-07-24T01:20:57;100299.94;;;17.73;100.00
14089;BME280;7120;52.890;6.040;2023-07-24T01:26:07;100293.63;;;17.73;100.00
14089;BME280;7120;52.890;6.040;2023-07-24T01:28:33;100271.13;;;17.74;100.00
14089;BME280;7120;52.890;6.040;2023-07-24T01:30:58;100275.84;;;17.74;100.00
14089;BME280;7120;52.890;6.040;2023-07-24T01:33:24;100264.50;;;17.79;100.00
14089;BME280;7120;52.890;6.040;2023-07-24T01:35:58;100264.63;;;17.67;100.00
14089;BME280;7120;52.890;6.040;2023-07-24T01:38:25;100268.31;;;17.71;100.00
14089;BME280;7120;52.890;6.040;2023-07-24T01:40:52;100262.97;;;17.62;100.00
14089;BME280;7120;52.890;6.040;2023-07-24T01:43:18;100263.69;;;17.59;100.00
14089;BME280;7120;52.890;6.040;2023-07-24T01:45:43;100261.44;;;17.65;100.00
14089;BME280;7120;52.890;6.040;2023-07-24T01:48:09;100264.09;;;17.61;100.00
14089;BME280;7120;52.890;6.040;2023-07-24T01:50:34;100259.31;;;17.58;100.00
14089;BME280;7120;52.890;6.040;2023-07-24T01:53:00;100246.00;;;17.64;100.00
14089;BME280;7120;52.890;6.040;2023-07-24T01:55:25;100259.59;;;17.53;100.00
14089;BME280;7120;52.890;6.040;2023-07-24T01:57:51;100267.84;;;17.49;100.00
14089;BME280;7120;52.890;6.040;2023-07-24T02:00:16;100262.72;;;17.51;100.00
14089;BME280;7120;52.890;6.040;2023-07-24T02:02:41;100251.88;;;17.43;100.00
14089;BME280;7120;52.890;6.040;2023-07-24T02:05:07;100247.38;;;17.35;100.00
14089;BME280;7120;52.890;6.040;2023-07-24T02:07:33;100257.91;;;17.29;100.00
14089;BME280;7120;52.890;6.040;2023-07-24T02:09:58;100250.47;;;17.33;100.00
14089;BME280;7120;52.890;6.040;2023-07-24T02:12:23;100251.28;;;17.34;100.00
14089;BME280;7120;52.890;6.040;2023-07-24T02:14:49;100239.78;;;17.32;100.00
14089;BME280;7120;52.890;6.040;2023-07-24T02:17:17;100248.50;;;17.34;100.00
14089;BME280;7120;52.890;6.040;2023-07-24T02:19:42;100250.47;;;17.33;100.00
14089;BME280;7120;52.890;6.040;2023-07-24T02:22:07;100249.63;;;17.29;100.00
14089;BME280;7120;52.890;6.040;2023-07-24T02:24:33;100240.97;;;17.30;100.00
14089;BME280;7120;52.890;6.040;2023-07-24T02:26:58;100246.13;;;17.32;100.00
14089;BME280;7120;52.890;6.040;2023-07-24T02:29:23;100245.03;;;17.37;100.00
14089;BME280;7120;52.890;6.040;2023-07-24T02:31:50;100236.31;;;17.35;100.00
14089;BME280;7120;52.890;6.040;2023-07-24T02:34:15;100244.09;;;17.29;100.00
14089;BME280;7120;52.890;6.040;2023-07-24T02:36:41;100244.16;;;17.33;100.00
14089;BME280;7120;52.890;6.040;2023-07-24T02:39:07;100236.31;;;17.35;100.00
14089;BME280;7120;52.890;6.040;2023-07-24T02:41:32;100243.59;;;17.43;100.00
14089;BME280;7120;52.890;6.040;2023-07-24T02:43:57;100248.63;;;17.56;100.00
14089;BME280;7120;52.890;6.040;2023-07-24T02:46:23;100234.16;;;17.63;100.00
14089;BME280;7120;52.890;6.040;2023-07-24T02:48:50;100234.00;;;17.56;100.00
14089;BME280;7120;52.890;6.040;2023-07-24T02:51:15;100231.56;;;17.54;100.00
14089;BME280;7120;52.890;6.040;2023-07-24T02:53:41;100235.38;;;17.66;100.00
14089;BME280;7120;52.890;6.040;2023-07-24T02:56:06;100244.47;;;17.66;100.00
14089;BME280;7120;52.890;6.040;2023-07-24T02:58:32;100252.63;;;17.59;100.00
14089;BME280;7120;52.890;6.040;2023-07-24T03:01:07;100244.25;;;17.55;100.00
14089;BME280;7120;52.890;6.040;2023-07-24T03:03:33;100239.34;;;17.68;100.00
14089;BME280;7120;52.890;6.040;2023-07-24T03:05:59;100240.97;;;17.69;100.00
14089;BME280;7120;52.890;6.040;2023-07-24T03:08:25;100230.00;;;17.73;100.00
14089;BME280;7120;52.890;6.040;2023-07-24T03:10:50;100226.00;;;17.70;100.00
14089;BME280;7120;52.890;6.040;2023-07-24T03:13:15;100232.34;;;17.71;100.00
14089;BME280;7120;52.890;6.040;2023-07-24T03:15:41;100217.78;;;17.74;100.00
14089;BME280;7120;52.890;6.040;2023-07-24T03:18:06;100220.97;;;17.76;100.00
14089;BME280;7120;52.890;6.040;2023-07-24T03:20:31;100220.00;;;17.68;100.00
14089;BME280;7120;52.890;6.040;2023-07-24T03:22:57;100205.50;;;17.71;100.00
14089;BME280;7120;52.890;6.040;2023-07-24T03:25:22;100206.53;;;17.67;100.00
14089;BME280;7120;52.890;6.040;2023-07-24T03:27:48;100212.72;;;17.60;100.00
14089;BME280;7120;52.890;6.040;2023-07-24T03:30:14;100219.56;;;17.66;100.00
14089;BME280;7120;52.890;6.040;2023-07-24T03:32:39;100216.28;;;17.61;100.00
14089;BME280;7120;52.890;6.040;2023-07-24T03:35:06;100233.41;;;17.66;100.00
14089;BME280;7120;52.890;6.040;2023-07-24T03:37:33;100230.94;;;17.80;100.00
14089;BME280;7120;52.890;6.040;2023-07-24T03:39:59;100232.53;;;17.81;100.00
14089;BME280;7120;52.890;6.040;2023-07-24T03:42:29;100224.09;;;17.74;100.00
14089;BME280;7120;52.890;6.040;2023-07-24T03:44:56;100226.66;;;17.83;100.00
14089;BME280;7120;52.890;6.040;2023-07-24T03:47:22;100226.34;;;17.69;100.00
14089;BME280;7120;52.890;6.040;2023-07-24T03:49:48;100217.41;;;17.75;100.00
14089;BME280;7120;52.890;6.040;2023-07-24T03:52:13;100216.69;;;17.78;100.00
14089;BME280;7120;52.890;6.040;2023-07-24T03:54:39;100207.22;;;17.79;100.00
14089;BME280;7120;52.890;6.040;2023-07-24T03:57:04;100207.34;;;17.87;100.00
14089;BME280;7120;52.890;6.040;2023-07-24T03:59:30;100200.94;;;17.82;100.00
14089;BME280;7120;52.890;6.040;2023-07-24T04:01:56;100199.81;;;17.83;100.00
14089;BME280;7120;52.890;6.040;2023-07-24T04:04:21;100198.03;;;17.75;100.00
14089;BME280;7120;52.890;6.040;2023-07-24T04:06:47;100208.22;;;17.91;100.00
14089;BME280;7120;52.890;6.040;2023-07-24T04:09:12;100202.84;;;17.98;100.00
14089;BME280;7120;52.890;6.040;2023-07-24T04:11:40;100205.88;;;17.93;100.00
14089;BME280;7120;52.890;6.040;2023-07-24T04:14:06;100190.09;;;17.93;100.00
14089;BME280;7120;52.890;6.040;2023-07-24T04:16:31;100179.31;;;17.88;100.00
14089;BME280;7120;52.890;6.040;2023-07-24T04:18:57;100187.94;;;17.83;100.00
14089;BME280;7120;52.890;6.040;2023-07-24T04:21:22;100191.56;;;17.87;100.00
14089;BME280;7120;52.890;6.040;2023-07-24T04:23:48;100190.63;;;17.79;100.00
14089;BME280;7120;52.890;6.040;2023-07-24T04:26:13;100183.78;;;17.73;100.00
14089;BME280;7120;52.890;6.040;2023-07-24T04:28:39;100183.50;;;17.78;100.00
14089;BME280;7120;52.890;6.040;2023-07-24T04:31:04;100186.63;;;17.77;100.00
14089;BME280;7120;52.890;6.040;2023-07-24T04:33:29;100193.09;;;17.84;100.00
14089;BME280;7120;52.890;6.040;2023-07-24T04:35:55;100193.59;;;17.90;100.00
14089;BME280;7120;52.890;6.040;2023-07-24T04:38:21;100200.28;;;17.89;100.00
14089;BME280;7120;52.890;6.040;2023-07-24T04:40:46;100189.97;;;17.86;100.00
14089;BME280;7120;52.890;6.040;2023-07-24T04:43:12;100187.69;;;17.92;100.00
14089;BME280;7120;52.890;6.040;2023-07-24T04:45:37;100186.16;;;17.94;100.00
14089;BME280;7120;52.890;6.040;2023-07-24T04:48:03;100191.25;;;17.92;100.00
14089;BME280;7120;52.890;6.040;2023-07-24T04:50:28;100183.13;;;18.03;100.00
14089;BME280;7120;52.890;6.040;2023-07-24T04:52:54;100184.97;;;17.95;100.00
14089;BME280;7120;52.890;6.040;2023-07-24T04:55:19;100172.06;;;18.03;100.00
14089;BME280;7120;52.890;6.040;2023-07-24T04:57:46;100166.34;;;18.15;100.00
14089;BME280;7120;52.890;6.040;2023-07-24T05:00:11;100163.31;;;18.24;100.00
14089;BME280;7120;52.890;6.040;2023-07-24T05:02:37;100167.16;;;18.16;100.00
14089;BME280;7120;52.890;6.040;2023-07-24T05:05:02;100174.91;;;18.06;100.00
14089;BME280;7120;52.890;6.040;2023-07-24T05:07:28;100178.06;;;18.05;100.00
14089;BME280;7120;52.890;6.040;2023-07-24T05:09:53;100189.59;;;18.10;100.00
14089;BME280;7120;52.890;6.040;2023-07-24T05:12:19;100193.16;;;18.11;100.00
14089;BME280;7120;52.890;6.040;2023-07-24T05:14:44;100176.38;;;18.23;100.00
14089;BME280;7120;52.890;6.040;2023-07-24T05:17:09;100179.59;;;18.25;100.00
14089;BME280;7120;52.890;6.040;2023-07-24T05:19:35;100177.97;;;18.01;100.00
14089;BME280;7120;52.890;6.040;2023-07-24T05:22:00;100181.97;;;18.04;100.00
14089;BME280;7120;52.890;6.040;2023-07-24T05:24:26;100173.19;;;18.21;100.00
14089;BME280;7120;52.890;6.040;2023-07-24T05:26:51;100182.22;;;18.18;100.00
14089;BME280;7120;52.890;6.040;2023-07-24T05:29:16;100185.97;;;18.06;100.00
14089;BME280;7120;52.890;6.040;2023-07-24T05:31:42;100183.25;;;18.10;100.00
14089;BME280;7120;52.890;6.040;2023-07-24T05:34:07;100181.00;;;18.16;100.00
14089;BME280;7120;52.890;6.040;2023-07-24T05:36:33;100179.09;;;18.20;100.00
14089;BME280;7120;52.890;6.040;2023-07-24T05:38:58;100184.00;;;18.07;100.00
14089;BME280;7120;52.890;6.040;2023-07-24T05:41:24;100180.03;;;18.04;100.00
14089;BME280;7120;52.890;6.040;2023-07-24T05:43:49;100174.63;;;18.11;100.00
14089;BME280;7120;52.890;6.040;2023-07-24T05:46:15;100181.25;;;18.07;100.00
14089;BME280;7120;52.890;6.040;2023-07-24T05:48:40;100179.03;;;18.16;100.00
14089;BME280;7120;52.890;6.040;2023-07-24T05:51:06;100177.84;;;18.17;100.00
14089;BME280;7120;52.890;6.040;2023-07-24T05:53:31;100176.19;;;18.35;100.00
14089;BME280;7120;52.890;6.040;2023-07-24T05:56:00;100174.97;;;18.33;100.00
14089;BME280;7120;52.890;6.040;2023-07-24T05:58:27;100165.66;;;18.45;100.00
14089;BME280;7120;52.890;6.040;2023-07-24T06:00:52;100166.81;;;18.44;100.00
14089;BME280;7120;52.890;6.040;2023-07-24T06:03:18;100175.31;;;18.54;100.00
14089;BME280;7120;52.890;6.040;2023-07-24T06:05:43;100169.22;;;18.68;100.00
14089;BME280;7120;52.890;6.040;2023-07-24T06:08:09;100172.28;;;18.63;100.00
14089;BME280;7120;52.890;6.040;2023-07-24T06:10:36;100171.66;;;18.73;100.00
14089;BME280;7120;52.890;6.040;2023-07-24T06:13:01;100172.59;;;18.84;100.00
14089;BME280;7120;52.890;6.040;2023-07-24T06:15:27;100176.34;;;18.69;100.00
14089;BME280;7120;52.890;6.040;2023-07-24T06:17:52;100171.88;;;18.64;100.00
14089;BME280;7120;52.890;6.040;2023-07-24T06:20:18;100176.09;;;18.81;100.00
14089;BME280;7120;52.890;6.040;2023-07-24T06:22:43;100169.19;;;18.94;100.00
14089;BME280;7120;52.890;6.040;2023-07-24T06:25:08;100173.19;;;18.97;100.00
14089;BME280;7120;52.890;6.040;2023-07-24T06:27:34;100175.97;;;18.97;100.00
14089;BME280;7120;52.890;6.040;2023-07-24T06:29:59;100168.25;;;19.13;100.00
14089;BME280;7120;52.890;6.040;2023-07-24T06:32:25;100176.41;;;19.03;100.00
14089;BME280;7120;52.890;6.040;2023-07-24T06:34:50;100170.13;;;19.06;100.00
14089;BME280;7120;52.890;6.040;2023-07-24T06:37:15;100170.59;;;19.11;100.00
14089;BME280;7120;52.890;6.040;2023-07-24T06:39:41;100157.97;;;19.14;100.00
14089;BME280;7120;52.890;6.040;2023-07-24T06:42:07;100159.41;;;19.38;100.00
14089;BME280;7120;52.890;6.040;2023-07-24T06:44:32;100164.16;;;19.67;100.00
14089;BME280;7120;52.890;6.040;2023-07-24T06:46:58;100166.88;;;19.64;100.00
14089;BME280;7120;52.890;6.040;2023-07-24T06:49:23;100164.44;;;19.59;100.00
14089;BME280;7120;52.890;6.040;2023-07-24T06:51:48;100167.22;;;19.96;100.00
14089;BME280;7120;52.890;6.040;2023-07-24T06:54:14;100173.31;;;20.09;100.00
14089;BME280;7120;52.890;6.040;2023-07-24T06:56:39;100173.59;;;20.00;100.00
14089;BME280;7120;52.890;6.040;2023-07-24T06:59:05;100164.47;;;19.99;100.00
14089;BME280;7120;52.890;6.040;2023-07-24T07:01:30;100173.13;;;19.91;100.00
14089;BME280;7120;52.890;6.040;2023-07-24T07:03:55;100174.63;;;19.85;100.00
14089;BME280;7120;52.890;6.040;2023-07-24T07:06:21;100179.41;;;19.84;100.00
14089;BME280;7120;52.890;6.040;2023-07-24T07:08:46;100175.16;;;19.97;100.00
14089;BME280;7120;52.890;6.040;2023-07-24T07:11:12;100175.41;;;19.82;100.00
14089;BME280;7120;52.890;6.040;2023-07-24T07:13:37;100184.28;;;19.98;100.00
14089;BME280;7120;52.890;6.040;2023-07-24T07:16:03;100178.28;;;19.92;100.00
14089;BME280;7120;52.890;6.040;2023-07-24T07:18:28;100164.78;;;19.91;100.00
14089;BME280;7120;52.890;6.040;2023-07-24T07:20:54;100175.97;;;19.98;100.00
14089;BME280;7120;52.890;6.040;2023-07-24T07:23:20;100169.94;;;19.89;100.00
14089;BME280;7120;52.890;6.040;2023-07-24T07:25:45;100170.66;;;19.82;100.00
14089;BME280;7120;52.890;6.040;2023-07-24T07:28:15;100178.06;;;19.71;100.00
14089;BME280;7120;52.890;6.040;2023-07-24T07:30:41;100183.34;;;19.49;100.00
14089;BME280;7120;52.890;6.040;2023-07-24T07:33:07;100181.56;;;19.64;100.00
14089;BME280;7120;52.890;6.040;2023-07-24T07:35:33;100184.47;;;19.75;100.00
14089;BME280;7120;52.890;6.040;2023-07-24T07:37:59;100179.63;;;19.68;100.00
14089;BME280;7120;52.890;6.040;2023-07-24T07:40:24;100186.97;;;19.54;100.00
14089;BME280;7120;52.890;6.040;2023-07-24T07:42:52;100179.94;;;19.60;100.00
14089;BME280;7120;52.890;6.040;2023-07-24T07:45:17;100174.38;;;19.60;100.00
14089;BME280;7120;52.890;6.040;2023-07-24T07:47:43;100182.44;;;19.72;100.00
14089;BME280;7120;52.890;6.040;2023-07-24T07:50:08;100169.44;;;19.80;100.00
14089;BME280;7120;52.890;6.040;2023-07-24T07:52:34;100173.81;;;19.81;100.00
14089;BME280;7120;52.890;6.040;2023-07-24T07:54:59;100180.50;;;20.17;100.00
14089;BME280;7120;52.890;6.040;2023-07-24T07:57:25;100176.03;;;20.05;100.00
14089;BME280;7120;52.890;6.040;2023-07-24T07:59:50;100172.41;;;19.97;100.00
14089;BME280;7120;52.890;6.040;2023-07-24T08:02:15;100179.84;;;19.90;100.00
14089;BME280;7120;52.890;6.040;2023-07-24T08:04:41;100168.34;;;19.88;100.00
14089;BME280;7120;52.890;6.040;2023-07-24T08:07:06;100177.34;;;19.78;100.00
14089;BME280;7120;52.890;6.040;2023-07-24T08:09:32;100178.03;;;19.67;100.00
14089;BME280;7120;52.890;6.040;2023-07-24T08:11:58;100181.56;;;19.64;100.00
14089;BME280;7120;52.890;6.040;2023-07-24T08:14:24;100161.81;;;19.69;100.00
14089;BME280;7120;52.890;6.040;2023-07-24T08:16:49;100163.94;;;19.83;100.00
14089;BME280;7120;52.890;6.040;2023-07-24T08:19:15;100170.59;;;19.75;100.00
14089;BME280;7120;52.890;6.040;2023-07-24T08:21:40;100152.06;;;20.34;100.00
14089;BME280;7120;52.890;6.040;2023-07-24T08:24:06;100156.44;;;20.32;100.00
14089;BME280;7120;52.890;6.040;2023-07-24T08:26:31;100162.78;;;20.32;100.00
14089;BME280;7120;52.890;6.040;2023-07-24T08:28:57;100154.28;;;20.14;100.00
14089;BME280;7120;52.890;6.040;2023-07-24T08:31:22;100141.78;;;20.97;100.00
14089;BME280;7120;52.890;6.040;2023-07-24T08:33:48;100151.28;;;22.01;100.00
14089;BME280;7120;52.890;6.040;2023-07-24T08:36:13;100136.94;;;21.95;100.00
14089;BME280;7120;52.890;6.040;2023-07-24T08:38:40;100141.63;;;21.52;100.00
14089;BME280;7120;52.890;6.040;2023-07-24T08:41:09;100141.59;;;21.41;100.00
14089;BME280;7120;52.890;6.040;2023-07-24T08:43:37;100142.75;;;21.33;100.00
14089;BME280;7120;52.890;6.040;2023-07-24T08:46:03;100143.91;;;21.25;100.00
14089;BME280;7120;52.890;6.040;2023-07-24T08:48:40;100142.75;;;21.33;100.00
14089;BME280;7120;52.890;6.040;2023-07-24T08:51:10;100138.91;;;21.77;100.00
14089;BME280;7120;52.890;6.040;2023-07-24T08:53:37;100136.16;;;22.48;100.00
14089;BME280;7120;52.890;6.040;2023-07-24T08:56:04;100135.78;;;22.25;100.00
14089;BME280;7120;52.890;6.040;2023-07-24T08:58:30;100135.34;;;21.80;100.00
14089;BME280;7120;52.890;6.040;2023-07-24T09:00:59;100128.16;;;21.57;100.00
14089;BME280;7120;52.890;6.040;2023-07-24T09:03:25;100121.03;;;22.53;100.00
14089;BME280;7120;52.890;6.040;2023-07-24T09:05:51;100139.03;;;23.46;100.00
14089;BME280;7120;52.890;6.040;2023-07-24T09:08:17;100139.44;;;23.45;100.00
14089;BME280;7120;52.890;6.040;2023-07-24T09:10:53;100133.69;;;23.80;100.00
14089;BME280;7120;52.890;6.040;2023-07-24T09:13:18;100136.31;;;24.54;100.00
14089;BME280;7120;52.890;6.040;2023-07-24T09:15:44;100127.69;;;23.86;100.00
14089;BME280;7120;52.890;6.040;2023-07-24T09:18:10;100126.09;;;22.97;100.00
14089;BME280;7120;52.890;6.040;2023-07-24T09:20:41;100146.06;;;22.81;100.00
14089;BME280;7120;52.890;6.040;2023-07-24T09:23:07;100151.56;;;23.10;100.00
14089;BME280;7120;52.890;6.040;2023-07-24T09:25:35;100142.53;;;22.45;100.00
14089;BME280;7120;52.890;6.040;2023-07-24T09:28:01;100142.13;;;22.54;100.00
14089;BME280;7120;52.890;6.040;2023-07-24T09:30:26;100145.69;;;22.68;100.00
14089;BME280;7120;52.890;6.040;2023-07-24T09:32:55;100135.16;;;23.33;100.00
14089;BME280;7120;52.890;6.040;2023-07-24T09:35:21;100139.34;;;23.70;100.00
14089;BME280;7120;52.890;6.040;2023-07-24T09:38:07;100137.84;;;24.14;100.00
14089;BME280;7120;52.890;6.040;2023-07-24T09:40:44;100138.19;;;24.68;100.00
14089;BME280;7120;52.890;6.040;2023-07-24T09:45:43;100136.19;;;24.64;100.00
14089;BME280;7120;52.890;6.040;2023-07-24T09:48:11;100134.81;;;24.83;100.00
14089;BME280;7120;52.890;6.040;2023-07-24T09:50:39;100118.56;;;23.74;100.00
14089;BME280;7120;52.890;6.040;2023-07-24T09:53:06;100119.88;;;23.52;100.00
14089;BME280;7120;52.890;6.040;2023-07-24T09:55:47;100120.97;;;24.24;100.00
14089;BME280;7120;52.890;6.040;2023-07-24T09:58:15;100119.53;;;24.54;96.32
14089;BME280;7120;52.890;6.040;2023-07-24T10:00:41;100114.97;;;24.26;100.00
14089;BME280;7120;52.890;6.040;2023-07-24T10:03:07;100119.50;;;23.46;100.00
14089;BME280;7120;52.890;6.040;2023-07-24T10:05:33;100116.88;;;23.11;100.00
14089;BME280;7120;52.890;6.040;2023-07-24T10:07:59;100116.66;;;23.53;100.00
14089;BME280;7120;52.890;6.040;2023-07-24T10:10:24;100112.03;;;23.29;100.00
14089;BME280;7120;52.890;6.040;2023-07-24T10:12:52;100118.38;;;23.37;100.00
14089;BME280;7120;52.890;6.040;2023-07-24T10:15:18;100110.28;;;23.64;100.00
14089;BME280;7120;52.890;6.040;2023-07-24T10:17:43;100111.66;;;23.93;100.00
14089;BME280;7120;52.890;6.040;2023-07-24T10:20:10;100109.63;;;24.46;97.44
14089;BME280;7120;52.890;6.040;2023-07-24T10:22:36;100104.50;;;24.37;97.03
14089;BME280;7120;52.890;6.040;2023-07-24T10:25:07;100108.81;;;24.45;100.00
14089;BME280;7120;52.890;6.040;2023-07-24T10:27:36;100101.72;;;25.12;94.12
14089;BME280;7120;52.890;6.040;2023-07-24T10:30:03;100098.22;;;25.01;95.96
14089;BME280;7120;52.890;6.040;2023-07-24T10:32:30;100094.75;;;24.90;91.78
14089;BME280;7120;52.890;6.040;2023-07-24T10:35:21;100090.41;;;24.06;100.00
14089;BME280;7120;52.890;6.040;2023-07-24T10:37:59;100076.00;;;23.52;100.00
14089;BME280;7120;52.890;6.040;2023-07-24T10:40:24;100084.38;;;24.11;99.86
14089;BME280;7120;52.890;6.040;2023-07-24T10:43:10;100097.84;;;24.65;93.10
14089;BME280;7120;52.890;6.040;2023-07-24T10:48:11;100087.09;;;24.19;100.00
14089;BME280;7120;52.890;6.040;2023-07-24T10:50:41;100083.88;;;23.72;100.00
14089;BME280;7120;52.890;6.040;2023-07-24T10:53:09;100087.88;;;23.71;100.00
14089;BME280;7120;52.890;6.040;2023-07-24T10:55:35;100088.13;;;23.91;100.00
14089;BME280;7120;52.890;6.040;2023-07-24T10:58:00;100082.56;;;23.91;100.00
14089;BME280;7120;52.890;6.040;2023-07-24T11:00:26;100085.72;;;23.96;100.00
14089;BME280;7120;52.890;6.040;2023-07-24T11:02:55;100079.03;;;23.79;98.39
14089;BME280;7120;52.890;6.040;2023-07-24T11:05:24;100084.81;;;24.03;99.20
14089;BME280;7120;52.890;6.040;2023-07-24T11:07:50;100096.47;;;24.43;94.71
14089;BME280;7120;52.890;6.040;2023-07-24T11:10:20;100088.47;;;24.45;93.47
14089;BME280;7120;52.890;6.040;2023-07-24T11:12:45;100092.75;;;24.11;92.70
14089;BME280;7120;52.890;6.040;2023-07-24T11:15:12;100089.50;;;24.17;95.65
14089;BME280;7120;52.890;6.040;2023-07-24T11:17:39;100079.81;;;23.83;96.61
14089;BME280;7120;52.890;6.040;2023-07-24T11:20:15;100075.50;;;23.75;100.00
14089;BME280;7120;52.890;6.040;2023-07-24T11:22:43;100084.50;;;23.94;100.00
14089;BME280;7120;52.890;6.040;2023-07-24T11:25:10;100081.25;;;24.02;98.63
14089;BME280;7120;52.890;6.040;2023-07-24T11:27:41;100081.59;;;24.08;94.96
14089;BME280;7120;52.890;6.040;2023-07-24T11:30:09;100078.56;;;24.36;99.19
14089;BME280;7120;52.890;6.040;2023-07-24T11:35:10;100085.13;;;23.60;100.00
14089;BME280;7120;52.890;6.040;2023-07-24T11:37:36;100092.34;;;23.57;100.00
14089;BME280;7120;52.890;6.040;2023-07-24T11:40:03;100093.50;;;22.87;100.00
14089;BME280;7120;52.890;6.040;2023-07-24T11:42:39;100121.78;;;22.78;100.00
14089;BME280;7120;52.890;6.040;2023-07-24T11:45:07;100122.63;;;22.00;100.00
14089;BME280;7120;52.890;6.040;2023-07-24T11:50:07;100126.16;;;21.58;100.00
14089;BME280;7120;52.890;6.040;2023-07-24T11:55:06;100124.50;;;21.35;100.00
14089;BME280;7120;52.890;6.040;2023-07-24T11:57:32;100115.97;;;20.96;100.00
14089;BME280;7120;52.890;6.040;2023-07-24T11:59:57;100134.78;;;20.55;100.00
14089;BME280;7120;52.890;6.040;2023-07-24T12:02:26;100133.34;;;19.76;100.00
14089;BME280;7120;52.890;6.040;2023-07-24T12:04:56;100129.22;;;19.59;100.00
14089;BME280;7120;52.890;6.040;2023-07-24T12:07:28;100129.72;;;19.72;100.00
14089;BME280;7120;52.890;6.040;2023-07-24T12:09:54;100127.66;;;20.06;100.00
14089;BME280;7120;52.890;6.040;2023-07-24T12:12:19;100141.13;;;20.52;100.00
14089;BME280;7120;52.890;6.040;2023-07-24T12:14:45;100143.16;;;21.35;100.00
14089;BME280;7120;52.890;6.040;2023-07-24T12:17:10;100128.88;;;21.36;100.00
14089;BME280;7120;52.890;6.040;2023-07-24T12:19:39;100128.88;;;20.60;100.00
14089;BME280;7120;52.890;6.040;2023-07-24T12:22:04;100131.84;;;20.34;100.00
14089;BME280;7120;52.890;6.040;2023-07-24T12:24:30;100138.31;;;20.45;100.00
14089;BME280;7120;52.890;6.040;2023-07-24T12:26:55;100134.00;;;20.54;100.00
14089;BME280;7120;52.890;6.040;2023-07-24T12:29:21;100135.75;;;20.29;100.00
14089;BME280;7120;52.890;6.040;2023-07-24T12:31:46;100145.63;;;20.19;100.00
14089;BME280;7120;52.890;6.040;2023-07-24T12:34:11;100147.94;;;20.14;100.00
14089;BME280;7120;52.890;6.040;2023-07-24T12:36:37;100138.47;;;20.22;100.00
14089;BME280;7120;52.890;6.040;2023-07-24T12:39:02;100136.63;;;20.37;100.00
14089;BME280;7120;52.890;6.040;2023-07-24T12:41:28;100131.63;;;20.53;100.00
14089;BME280;7120;52.890;6.040;2023-07-24T12:43:53;100129.38;;;20.73;100.00
14089;BME280;7120;52.890;6.040;2023-07-24T12:46:18;100127.84;;;20.86;100.00
14089;BME280;7120;52.890;6.040;2023-07-24T12:48:44;100135.47;;;20.41;100.00
14089;BME280;7120;52.890;6.040;2023-07-24T12:51:09;100144.66;;;20.45;100.00
14089;BME280;7120;52.890;6.040;2023-07-24T12:53:34;100138.53;;;20.25;100.00
14089;BME280;7120;52.890;6.040;2023-07-24T12:56:00;100124.38;;;19.93;100.00
14089;BME280;7120;52.890;6.040;2023-07-24T12:58:25;100131.69;;;19.68;100.00
14089;BME280;7120;52.890;6.040;2023-07-24T13:00:50;100131.59;;;19.61;100.00